createdAt,value
2023-01-26T00:02:20.967Z,61.02
2023-01-26T00:04:49.146Z,61.21
2023-01-26T00:07:17.289Z,60.82
2023-01-26T00:09:45.366Z,60.53
2023-01-26T00:12:13.870Z,58.70
2023-01-26T00:14:51.046Z,57.44
2023-01-26T00:17:28.076Z,57.64
2023-01-26T00:19:58.336Z,58.09
2023-01-26T00:22:27.812Z,58.99
2023-01-26T00:24:56.305Z,60.44
2023-01-26T00:27:24.448Z,60.92
2023-01-26T00:29:52.718Z,62.90
2023-01-26T00:32:21.177Z,63.76
2023-01-26T00:34:49.399Z,63.44
2023-01-26T00:37:17.638Z,62.68
2023-01-26T00:39:45.757Z,63.62
2023-01-26T00:42:14.212Z,63.07
2023-01-26T00:44:43.476Z,63.23
2023-01-26T00:47:13.421Z,62.86
2023-01-26T00:49:41.570Z,62.48
2023-01-26T00:52:10.923Z,62.07
2023-01-26T00:54:39.972Z,60.93
2023-01-26T00:57:08.285Z,60.78
2023-01-26T00:59:37.716Z,60.35
2023-01-26T01:02:05.985Z,59.31
2023-01-26T01:04:34.412Z,58.18
2023-01-26T01:07:02.620Z,58.49
2023-01-26T01:09:30.746Z,58.69
2023-01-26T01:11:58.844Z,59.98
2023-01-26T01:14:27.049Z,60.28
2023-01-26T01:16:55.111Z,60.74
2023-01-26T01:19:23.401Z,62.19
2023-01-26T01:21:51.761Z,64.32
2023-01-26T01:24:19.900Z,64.25
2023-01-26T01:26:48.311Z,64.36
2023-01-26T01:29:16.569Z,63.58
2023-01-26T01:31:44.707Z,63.04
2023-01-26T01:34:12.827Z,62.01
2023-01-26T01:36:41.711Z,61.50
2023-01-26T01:39:09.792Z,61.11
2023-01-26T01:41:37.902Z,60.21
2023-01-26T01:44:22.522Z,60.74
2023-01-26T01:47:02.151Z,61.11
2023-01-26T01:49:49.605Z,60.91
2023-01-26T01:52:26.945Z,60.43
2023-01-26T01:55:08.700Z,60.51
2023-01-26T02:04:27.518Z,57.63
2023-01-26T02:06:59.253Z,57.84
2023-01-26T02:09:52.317Z,58.43
2023-01-26T02:12:24.716Z,58.54
2023-01-26T02:14:53.361Z,59.31
2023-01-26T02:17:23.000Z,57.93
2023-01-26T02:19:57.489Z,60.08
2023-01-26T02:22:47.280Z,60.76
2023-01-26T02:25:28.162Z,62.57
2023-01-26T02:27:56.665Z,64.69
2023-01-26T02:30:27.377Z,64.94
2023-01-26T02:36:08.396Z,64.36
2023-01-26T02:38:46.774Z,62.77
2023-01-26T02:41:37.261Z,62.03
2023-01-26T02:44:10.482Z,61.60
2023-01-26T02:46:38.741Z,60.99
2023-01-26T02:49:26.208Z,60.60
2023-01-26T02:51:54.545Z,60.42
2023-01-26T02:54:41.533Z,59.94
2023-01-26T02:57:09.683Z,59.06
2023-01-26T02:59:38.022Z,58.02
2023-01-26T03:02:06.839Z,57.98
2023-01-26T03:04:35.481Z,58.43
2023-01-26T03:07:03.639Z,59.11
2023-01-26T03:09:31.696Z,60.59
2023-01-26T03:11:59.778Z,60.78
2023-01-26T03:14:29.263Z,62.23
2023-01-26T03:16:57.357Z,63.60
2023-01-26T03:19:44.392Z,65.06
2023-01-26T03:22:31.705Z,65.43
2023-01-26T03:25:18.914Z,65.00
2023-01-26T03:27:49.333Z,65.46
2023-01-26T03:30:19.830Z,64.17
2023-01-26T03:32:49.250Z,62.62
2023-01-26T03:35:23.153Z,61.44
2023-01-26T03:37:55.071Z,60.77
2023-01-26T03:41:17.204Z,61.07
2023-01-26T03:44:03.926Z,59.54
2023-01-26T03:46:50.871Z,57.60
2023-01-26T03:49:38.174Z,57.38
2023-01-26T03:52:25.118Z,57.74
2023-01-26T03:55:11.715Z,58.41
2023-01-26T03:57:39.801Z,59.05
2023-01-26T04:00:10.612Z,59.99
2023-01-26T04:03:00.380Z,60.45
2023-01-26T04:05:47.683Z,60.97
2023-01-26T04:08:25.377Z,62.90
2023-01-26T04:10:58.197Z,65.37
2023-01-26T04:13:45.664Z,64.81
2023-01-26T04:16:42.318Z,63.79
2023-01-26T04:19:29.768Z,63.63
2023-01-26T04:22:00.659Z,63.62
2023-01-26T04:24:29.669Z,63.12
2023-01-26T04:26:58.936Z,62.07
2023-01-26T04:29:31.823Z,61.28
2023-01-26T04:32:00.087Z,60.11
2023-01-26T04:34:29.311Z,60.61
2023-01-26T04:36:58.618Z,60.12
2023-01-26T04:39:33.664Z,59.98
2023-01-26T04:42:01.923Z,59.96
2023-01-26T04:44:30.507Z,60.28
2023-01-26T04:46:59.123Z,60.42
2023-01-26T04:49:27.510Z,60.11
2023-01-26T04:51:56.511Z,58.56
2023-01-26T04:54:25.734Z,57.47
2023-01-26T04:56:53.922Z,57.70
2023-01-26T04:59:22.287Z,58.31
2023-01-26T05:01:50.706Z,59.01
2023-01-26T05:04:19.083Z,60.12
2023-01-26T05:06:48.291Z,61.00
2023-01-26T05:09:17.143Z,62.13
2023-01-26T05:11:46.961Z,64.34
2023-01-26T05:14:38.421Z,64.26
2023-01-26T05:17:42.224Z,63.97
2023-01-26T05:20:30.368Z,63.16
2023-01-26T05:23:18.801Z,62.96
2023-01-26T05:26:05.834Z,62.58
2023-01-26T05:28:44.714Z,61.94
2023-01-26T05:31:13.052Z,61.02
2023-01-26T05:33:41.269Z,60.65
2023-01-26T05:36:11.386Z,60.62
2023-01-26T05:38:40.099Z,60.71
2023-01-26T05:41:08.633Z,60.31
2023-01-26T05:43:50.617Z,60.43
2023-01-26T05:46:41.317Z,58.94
2023-01-26T05:49:09.738Z,57.88
2023-01-26T05:51:37.883Z,57.97
2023-01-26T05:54:08.030Z,58.34
2023-01-26T05:56:36.862Z,58.98
2023-01-26T05:59:08.788Z,59.53
2023-01-26T06:01:37.311Z,60.16
2023-01-26T06:04:07.411Z,61.40
2023-01-26T06:06:45.372Z,62.98
2023-01-26T06:09:27.144Z,64.06
2023-01-26T06:12:19.972Z,64.34
2023-01-26T06:14:57.591Z,63.91
2023-01-26T06:17:33.872Z,64.29
2023-01-26T06:20:05.941Z,62.96
2023-01-26T06:22:34.314Z,62.91
2023-01-26T06:25:02.756Z,62.59
2023-01-26T06:27:31.399Z,62.12
2023-01-26T06:30:05.587Z,61.79
2023-01-26T06:32:33.989Z,61.43
2023-01-26T06:35:03.327Z,61.31
2023-01-26T06:37:32.087Z,61.08
2023-01-26T06:40:00.247Z,61.02
2023-01-26T06:42:28.451Z,60.73
2023-01-26T06:44:59.011Z,60.51
2023-01-26T06:47:27.301Z,60.35
2023-01-26T06:49:55.536Z,60.46
2023-01-26T06:52:30.185Z,60.78
2023-01-26T06:55:03.774Z,60.41
2023-01-26T06:57:49.818Z,59.80
2023-01-26T07:00:36.735Z,58.91
2023-01-26T07:03:24.796Z,58.27
2023-01-26T07:05:52.943Z,58.64
2023-01-26T07:08:21.162Z,59.10
2023-01-26T07:10:50.672Z,59.94
2023-01-26T07:13:18.748Z,61.17
2023-01-26T07:15:46.823Z,62.55
2023-01-26T07:18:14.944Z,64.10
2023-01-26T07:20:43.167Z,64.58
2023-01-26T07:23:11.361Z,64.22
2023-01-26T07:25:43.467Z,64.11
2023-01-26T07:28:11.564Z,63.93
2023-01-26T07:30:39.602Z,63.32
2023-01-26T07:33:08.012Z,62.90
2023-01-26T07:35:36.181Z,62.45
2023-01-26T07:38:05.358Z,61.98
2023-01-26T07:40:34.571Z,61.71
2023-01-26T07:43:02.623Z,61.56
2023-01-26T07:45:54.061Z,61.60
2023-01-26T07:48:24.317Z,62.10
2023-01-26T07:50:52.642Z,61.99
2023-01-26T07:53:23.079Z,61.18
2023-01-26T07:55:51.417Z,60.48
2023-01-26T07:58:19.538Z,60.22
2023-01-26T08:00:48.128Z,58.86
2023-01-26T08:03:16.193Z,57.68
2023-01-26T08:05:44.500Z,57.74
2023-01-26T08:08:13.171Z,58.44
2023-01-26T08:10:41.540Z,59.58
2023-01-26T08:13:09.838Z,60.41
2023-01-26T08:15:37.947Z,61.90
2023-01-26T08:18:06.179Z,63.75
2023-01-26T08:20:35.349Z,63.94
2023-01-26T08:23:03.452Z,63.57
2023-01-26T08:25:33.854Z,63.61
2023-01-26T08:28:03.449Z,63.74
2023-01-26T08:30:31.617Z,63.25
2023-01-26T08:32:59.792Z,63.21
2023-01-26T08:35:28.138Z,62.66
2023-01-26T08:37:56.257Z,62.48
2023-01-26T08:40:25.140Z,62.23
2023-01-26T08:42:54.317Z,62.13
2023-01-26T08:45:22.666Z,61.84
2023-01-26T08:47:51.498Z,61.62
2023-01-26T08:50:19.619Z,61.64
2023-01-26T08:52:47.729Z,61.60
2023-01-26T08:55:16.003Z,61.76
2023-01-26T08:57:45.330Z,61.76
2023-01-26T09:00:14.423Z,61.69
2023-01-26T09:02:42.734Z,61.84
2023-01-26T09:05:11.098Z,61.82
2023-01-26T09:07:39.175Z,61.75
2023-01-26T09:10:08.460Z,61.74
2023-01-26T09:12:36.645Z,61.77
2023-01-26T09:15:05.471Z,61.70
2023-01-26T09:17:33.774Z,61.64
2023-01-26T09:20:02.250Z,61.61
2023-01-26T09:22:30.904Z,61.95
2023-01-26T09:24:59.062Z,61.96
2023-01-26T09:27:27.839Z,62.07
2023-01-26T09:29:56.210Z,62.20
2023-01-26T09:32:24.408Z,62.10
2023-01-26T09:34:52.991Z,61.88
2023-01-26T09:37:21.131Z,61.80
2023-01-26T09:39:49.203Z,62.14
2023-01-26T09:42:39.009Z,62.06
2023-01-26T09:45:13.682Z,62.23
2023-01-26T09:48:09.564Z,62.08
2023-01-26T09:50:53.002Z,61.63
2023-01-26T09:53:34.441Z,62.05
2023-01-26T09:56:02.593Z,62.05
2023-01-26T09:58:40.894Z,62.71
2023-01-26T10:01:48.467Z,62.79
2023-01-26T10:04:30.155Z,62.28
2023-01-26T10:07:02.049Z,62.33
2023-01-26T10:09:53.450Z,62.31
2023-01-26T10:12:35.375Z,62.53
2023-01-26T10:15:06.549Z,62.70
2023-01-26T10:17:44.312Z,62.71
2023-01-26T10:20:15.259Z,62.54
2023-01-26T10:22:46.210Z,62.47
2023-01-26T10:25:40.022Z,62.53
2023-01-26T10:28:17.421Z,62.57
2023-01-26T10:30:48.907Z,62.60
2023-01-26T10:33:35.337Z,62.59
2023-01-26T10:36:07.641Z,62.53
2023-01-26T10:38:36.233Z,62.39
2023-01-26T10:41:21.083Z,61.83
2023-01-26T10:43:55.893Z,61.83
2023-01-26T10:46:25.616Z,61.61
2023-01-26T10:48:59.192Z,61.58
2023-01-26T10:51:33.208Z,61.92
2023-01-26T10:54:14.425Z,61.66
2023-01-26T10:57:00.731Z,61.88
2023-01-26T10:59:31.832Z,61.64
2023-01-26T11:02:20.713Z,61.94
2023-01-26T11:05:25.430Z,61.86
2023-01-26T11:08:00.347Z,61.83
2023-01-26T11:10:37.340Z,62.16
2023-01-26T11:13:12.748Z,62.79
2023-01-26T11:15:44.108Z,62.93
2023-01-26T11:18:42.848Z,63.24
2023-01-26T11:21:23.440Z,63.16
2023-01-26T11:24:21.519Z,63.22
2023-01-26T11:27:13.943Z,62.90
2023-01-26T11:29:51.377Z,63.09
2023-01-26T11:32:46.969Z,63.14
2023-01-26T11:35:51.699Z,62.05
2023-01-26T11:38:38.296Z,62.32
2023-01-26T11:41:32.993Z,62.60
2023-01-26T11:44:25.405Z,62.42
2023-01-26T11:47:31.570Z,62.65
2023-01-26T11:50:18.398Z,62.56
2023-01-26T11:53:00.404Z,62.45
2023-01-26T11:56:13.490Z,62.36
2023-01-26T11:58:45.888Z,62.51
2023-01-26T12:01:29.140Z,62.84
2023-01-26T12:03:57.899Z,62.31
2023-01-26T12:06:45.207Z,62.26
2023-01-26T12:09:21.393Z,61.92
2023-01-26T12:12:04.123Z,61.88
2023-01-26T12:14:51.275Z,62.09
2023-01-26T12:17:38.674Z,63.60
2023-01-26T12:20:47.823Z,61.91
2023-01-26T12:23:39.425Z,61.29
2023-01-26T12:26:12.349Z,61.00
2023-01-26T12:29:31.918Z,60.54
2023-01-26T12:32:12.523Z,60.46
2023-01-26T12:34:40.869Z,61.10
2023-01-26T12:37:32.199Z,61.37
2023-01-26T12:40:36.394Z,61.78
2023-01-26T12:43:37.023Z,61.77
2023-01-26T12:46:07.508Z,61.57
2023-01-26T12:48:46.181Z,61.36
2023-01-26T12:51:25.941Z,61.21
2023-01-26T12:54:02.201Z,60.71
2023-01-26T12:56:40.539Z,60.14
2023-01-26T12:59:39.429Z,60.07
2023-01-26T13:02:15.978Z,60.61
2023-01-26T13:04:48.851Z,60.60
2023-01-26T13:07:31.401Z,60.39
2023-01-26T13:10:10.593Z,60.51
2023-01-26T13:13:07.997Z,60.49
2023-01-26T13:15:36.385Z,60.33
2023-01-26T13:18:04.928Z,60.59
2023-01-26T13:20:48.852Z,60.70
2023-01-26T13:23:29.469Z,60.67
2023-01-26T13:26:35.659Z,60.73
2023-01-26T13:29:22.774Z,61.08
2023-01-26T13:31:55.750Z,61.14
2023-01-26T13:34:35.685Z,60.72
2023-01-26T13:37:16.418Z,60.90
2023-01-26T13:39:51.918Z,60.85
2023-01-26T13:42:28.609Z,61.35
2023-01-26T13:45:03.237Z,61.38
2023-01-26T13:47:40.687Z,61.27
2023-01-26T13:50:38.828Z,61.39
2023-01-26T13:53:37.383Z,61.06
2023-01-26T13:56:19.790Z,61.25
2023-01-26T13:58:47.893Z,61.45
2023-01-26T14:01:17.378Z,61.76
2023-01-26T14:03:46.457Z,61.74
2023-01-26T14:06:22.724Z,61.67
2023-01-26T14:08:57.349Z,62.07
2023-01-26T14:11:29.700Z,62.24
2023-01-26T14:13:59.503Z,62.21
2023-01-26T14:16:33.212Z,62.32
2023-01-26T14:19:14.942Z,62.06
2023-01-26T14:21:54.065Z,62.05
2023-01-26T14:24:32.898Z,62.00
2023-01-26T14:27:03.959Z,61.85
2023-01-26T14:29:38.499Z,61.65
2023-01-26T14:32:16.275Z,61.72
2023-01-26T14:34:58.808Z,61.81
2023-01-26T14:37:28.463Z,61.69
2023-01-26T14:40:21.508Z,61.66
2023-01-26T14:42:52.613Z,61.52
2023-01-26T14:45:31.304Z,61.67
2023-01-26T14:48:06.030Z,61.55
2023-01-26T14:50:36.497Z,61.65
2023-01-26T14:53:06.809Z,61.74
2023-01-26T14:56:29.559Z,61.51
2023-01-26T14:58:54.628Z,61.38
2023-01-26T15:01:26.148Z,61.48
2023-01-26T15:04:19.528Z,61.45
2023-01-26T15:06:47.733Z,61.46
2023-01-26T15:09:27.054Z,61.64
2023-01-26T15:12:18.634Z,61.51
2023-01-26T15:14:55.733Z,61.46
2023-01-26T15:17:36.026Z,61.48
2023-01-26T15:20:23.010Z,61.54
2023-01-26T15:22:53.075Z,61.47
2023-01-26T15:25:26.541Z,61.57
2023-01-26T15:28:00.419Z,61.42
2023-01-26T15:30:35.496Z,61.63
2023-01-26T15:33:04.010Z,61.77
2023-01-26T15:35:35.495Z,61.71
2023-01-26T15:38:11.871Z,61.58
2023-01-26T15:40:40.383Z,62.12
2023-01-26T15:43:15.840Z,62.12
2023-01-26T15:45:56.040Z,62.24
2023-01-26T15:48:25.564Z,62.33
2023-01-26T15:50:53.715Z,62.60
2023-01-26T15:53:22.521Z,63.25
2023-01-26T15:55:56.263Z,62.99
2023-01-26T15:58:26.591Z,62.65
2023-01-26T16:00:54.804Z,62.04
2023-01-26T16:03:23.051Z,61.76
2023-01-26T16:05:51.627Z,61.74
2023-01-26T16:08:20.445Z,61.52
2023-01-26T16:10:48.775Z,61.62
2023-01-26T16:13:19.160Z,61.57
2023-01-26T16:15:48.997Z,61.39
2023-01-26T16:18:19.295Z,61.76
2023-01-26T16:20:49.183Z,61.46
2023-01-26T16:23:25.393Z,61.74
2023-01-26T16:25:53.782Z,61.95
2023-01-26T16:28:22.297Z,61.96
2023-01-26T16:30:53.841Z,62.09
2023-01-26T16:33:22.026Z,61.68
2023-01-26T16:35:50.161Z,61.76
2023-01-26T16:38:18.506Z,62.08
2023-01-26T16:40:48.737Z,62.06
2023-01-26T16:43:23.689Z,61.74
2023-01-26T16:45:52.982Z,61.69
2023-01-26T16:48:22.859Z,61.77
2023-01-26T16:50:53.306Z,61.78
2023-01-26T16:53:25.658Z,61.81
2023-01-26T16:55:54.045Z,61.64
2023-01-26T16:58:26.236Z,61.79
2023-01-26T17:00:55.241Z,61.65
2023-01-26T17:03:24.308Z,61.41
2023-01-26T17:05:52.636Z,61.35
2023-01-26T17:08:20.686Z,61.25
2023-01-26T17:11:01.726Z,61.27
2023-01-26T17:13:31.668Z,61.28
2023-01-26T17:16:00.279Z,61.23
2023-01-26T17:18:28.470Z,61.14
2023-01-26T17:21:02.773Z,61.32
2023-01-26T17:23:31.466Z,61.50
2023-01-26T17:26:00.745Z,61.42
2023-01-26T17:28:29.713Z,61.44
2023-01-26T17:31:00.830Z,61.41
2023-01-26T17:33:30.240Z,61.20
2023-01-26T17:36:04.367Z,61.24
2023-01-26T17:38:33.491Z,61.35
2023-01-26T17:41:01.970Z,61.40
2023-01-26T17:43:30.922Z,61.40
2023-01-26T17:46:04.945Z,61.52
2023-01-26T17:48:35.132Z,61.61
2023-01-26T17:51:14.430Z,61.64
2023-01-26T17:53:44.421Z,61.57
2023-01-26T17:56:14.933Z,61.61
2023-01-26T17:58:43.448Z,61.69
2023-01-26T18:01:11.699Z,61.51
2023-01-26T18:03:41.968Z,61.56
2023-01-26T18:06:11.559Z,61.58
2023-01-26T18:08:40.621Z,61.51
2023-01-26T18:11:11.807Z,61.51
2023-01-26T18:13:40.404Z,61.43
2023-01-26T18:16:12.689Z,61.43
2023-01-26T18:18:40.856Z,61.40
2023-01-26T18:21:14.129Z,61.72
2023-01-26T18:23:50.588Z,61.56
2023-01-26T18:26:21.656Z,61.47
2023-01-26T18:28:50.100Z,61.40
2023-01-26T18:31:23.763Z,61.44
2023-01-26T18:33:52.361Z,61.40
2023-01-26T18:36:21.516Z,61.58
2023-01-26T18:38:52.603Z,61.92
2023-01-26T18:41:22.797Z,61.94
2023-01-26T18:43:52.598Z,61.84
2023-01-26T18:46:22.396Z,61.94
2023-01-26T18:48:53.582Z,61.94
2023-01-26T18:51:22.810Z,61.97
2023-01-26T18:53:51.172Z,62.06
2023-01-26T18:56:19.515Z,62.12
2023-01-26T18:58:47.818Z,62.03
2023-01-26T19:01:16.638Z,62.20
2023-01-26T19:03:47.871Z,62.41
2023-01-26T19:06:18.349Z,62.44
2023-01-26T19:08:48.297Z,62.46
2023-01-26T19:11:16.333Z,62.51
2023-01-26T19:13:46.430Z,62.68
2023-01-26T19:16:14.780Z,62.76
2023-01-26T19:18:43.000Z,62.96
2023-01-26T19:21:11.284Z,62.98
2023-01-26T19:23:40.327Z,63.26
2023-01-26T19:26:17.892Z,63.34
2023-01-26T19:28:50.449Z,63.10
2023-01-26T19:31:20.986Z,63.31
2023-01-26T19:33:57.548Z,63.34
2023-01-26T19:36:27.769Z,63.28
2023-01-26T19:38:56.480Z,63.44
2023-01-26T19:41:25.740Z,63.91
2023-01-26T19:43:54.008Z,64.08
2023-01-26T19:46:22.911Z,63.98
2023-01-26T19:48:51.182Z,63.93
2023-01-26T19:51:22.709Z,64.56
2023-01-26T19:53:54.731Z,64.52
2023-01-26T19:56:26.117Z,64.35
2023-01-26T19:58:59.333Z,64.49
2023-01-26T20:01:29.879Z,64.69
2023-01-26T20:04:02.196Z,64.89
2023-01-26T20:06:33.499Z,65.30
2023-01-26T20:09:04.000Z,64.82
2023-01-26T20:11:34.104Z,64.80
2023-01-26T20:14:08.949Z,65.00
2023-01-26T20:16:37.475Z,64.91
2023-01-26T20:19:06.329Z,64.91
2023-01-26T20:21:35.836Z,64.94
2023-01-26T20:24:05.909Z,64.92
2023-01-26T20:26:34.952Z,64.85
2023-01-26T20:29:03.771Z,64.72
2023-01-26T20:31:33.415Z,64.81
2023-01-26T20:34:02.203Z,64.82
2023-01-26T20:36:31.789Z,64.82
2023-01-26T20:39:00.099Z,65.08
2023-01-26T20:41:31.443Z,65.18
2023-01-26T20:44:03.632Z,65.41
2023-01-26T20:46:36.844Z,65.55
2023-01-26T20:49:08.936Z,65.73
2023-01-26T20:51:39.485Z,65.98
2023-01-26T20:54:08.534Z,66.34
2023-01-26T20:56:37.582Z,66.33
2023-01-26T20:59:07.046Z,66.09
2023-01-26T21:01:36.670Z,66.19
2023-01-26T21:04:05.915Z,66.20
2023-01-26T21:06:34.558Z,66.35
2023-01-26T21:09:05.301Z,66.16
2023-01-26T21:11:34.885Z,65.74
2023-01-26T21:14:04.092Z,65.68
2023-01-26T21:16:33.265Z,65.33
2023-01-26T21:19:01.421Z,65.45
2023-01-26T21:21:29.592Z,65.90
2023-01-26T21:23:57.803Z,66.14
2023-01-26T21:26:27.919Z,66.53
2023-01-26T21:28:59.042Z,66.57
2023-01-26T21:31:30.480Z,66.35
2023-01-26T21:34:00.057Z,66.20
2023-01-26T21:36:30.939Z,66.18
2023-01-26T21:39:00.307Z,66.13
2023-01-26T21:41:49.898Z,66.08
2023-01-26T21:44:27.484Z,65.96
2023-01-26T21:47:00.425Z,65.73
2023-01-26T21:49:29.429Z,65.58
2023-01-26T21:52:16.634Z,65.56
2023-01-26T21:54:44.942Z,65.80
2023-01-26T21:57:31.862Z,65.80
2023-01-26T21:59:59.868Z,65.79
2023-01-26T22:02:28.120Z,65.98
2023-01-26T22:04:56.195Z,66.17
2023-01-26T22:07:24.718Z,65.90
2023-01-26T22:09:52.892Z,66.07
2023-01-26T22:12:23.052Z,65.93
2023-01-26T22:14:52.289Z,65.66
2023-01-26T22:17:20.463Z,66.48
2023-01-26T22:19:48.721Z,66.33
2023-01-26T22:22:16.748Z,65.68
2023-01-26T22:24:44.918Z,64.89
2023-01-26T22:27:13.012Z,64.57
2023-01-26T22:29:41.243Z,64.74
2023-01-26T22:32:09.367Z,64.78
2023-01-26T22:34:37.419Z,64.68
2023-01-26T22:37:06.185Z,64.72
2023-01-26T22:39:34.360Z,64.94
2023-01-26T22:42:02.451Z,64.74
2023-01-26T22:44:30.796Z,64.51
2023-01-26T22:46:59.053Z,64.46
2023-01-26T22:49:27.177Z,64.38
2023-01-26T22:51:55.290Z,64.37
2023-01-26T22:54:23.780Z,64.42
2023-01-26T22:56:51.824Z,64.47
2023-01-26T22:59:20.460Z,64.45
2023-01-26T23:01:48.579Z,64.21
2023-01-26T23:04:16.729Z,64.52
2023-01-26T23:06:44.851Z,64.76
2023-01-26T23:09:13.416Z,64.81
2023-01-26T23:11:41.741Z,64.82
2023-01-26T23:14:09.769Z,64.72
2023-01-26T23:16:38.062Z,64.62
2023-01-26T23:19:06.184Z,64.88
2023-01-26T23:21:34.311Z,64.89
2023-01-26T23:24:02.636Z,65.21
2023-01-26T23:26:30.764Z,65.32
2023-01-26T23:28:58.920Z,65.50
2023-01-26T23:31:27.187Z,65.41
2023-01-26T23:33:55.241Z,65.54
2023-01-26T23:36:23.484Z,65.44
2023-01-26T23:38:52.702Z,65.39
2023-01-26T23:41:20.920Z,65.53
2023-01-26T23:43:49.137Z,65.59
2023-01-26T23:46:17.324Z,65.79
2023-01-26T23:48:45.586Z,65.63
2023-01-26T23:51:13.723Z,65.97
2023-01-26T23:53:41.981Z,66.22
2023-01-26T23:56:14.884Z,66.25
2023-01-26T23:58:43.455Z,66.62
